sensor_id;sensor_type;location;lat;lon;timestamp;pressure;altitude;pressure_sealevel;temperature;humidity
17525;BME280;40431;52.198;9.902;2023-08-31T00:01:28;99795.59;;;13.73;100.00
17525;BME280;40431;52.198;9.902;2023-08-31T00:03:55;99804.53;;;13.75;100.00
17525;BME280;40431;52.198;9.902;2023-08-31T00:06:21;99801.06;;;13.73;100.00
17525;BME280;40431;52.198;9.902;2023-08-31T00:08:48;99802.31;;;13.69;100.00
17525;BME280;40431;52.198;9.902;2023-08-31T00:11:14;99803.31;;;13.68;100.00
17525;BME280;40431;52.198;9.902;2023-08-31T00:13:42;99804.19;;;13.68;100.00
17525;BME280;40431;52.198;9.902;2023-08-31T00:16:09;99800.47;;;13.69;100.00
17525;BME280;40431;52.198;9.902;2023-08-31T00:18:38;99802.31;;;13.69;100.00
17525;BME280;40431;52.198;9.902;2023-08-31T00:21:04;99807.63;;;13.70;100.00
17525;BME280;40431;52.198;9.902;2023-08-31T00:23:31;99809.22;;;13.73;100.00
17525;BME280;40431;52.198;9.902;2023-08-31T00:25:57;99808.31;;;13.63;100.00
17525;BME280;40431;52.198;9.902;2023-08-31T00:28:24;99813.03;;;13.61;100.00
17525;BME280;40431;52.198;9.902;2023-08-31T00:30:52;99807.59;;;13.49;100.00
17525;BME280;40431;52.198;9.902;2023-08-31T00:33:18;99808.63;;;13.48;100.00
17525;BME280;40431;52.198;9.902;2023-08-31T00:35:44;99799.97;;;13.43;100.00
17525;BME280;40431;52.198;9.902;2023-08-31T00:38:12;99807.91;;;13.35;100.00
17525;BME280;40431;52.198;9.902;2023-08-31T00:40:39;99799.28;;;13.30;100.00
17525;BME280;40431;52.198;9.902;2023-08-31T00:43:08;99800.03;;;13.20;100.00
17525;BME280;40431;52.198;9.902;2023-08-31T00:45:34;99793.38;;;13.13;100.00
17525;BME280;40431;52.198;9.902;2023-08-31T00:48:03;99799.84;;;13.12;100.00
17525;BME280;40431;52.198;9.902;2023-08-31T00:50:30;99806.25;;;13.11;100.00
17525;BME280;40431;52.198;9.902;2023-08-31T00:52:56;99806.13;;;13.13;100.00
17525;BME280;40431;52.198;9.902;2023-08-31T00:55:23;99810.81;;;13.11;100.00
17525;BME280;40431;52.198;9.902;2023-08-31T00:57:49;99808.59;;;13.16;100.00
17525;BME280;40431;52.198;9.902;2023-08-31T01:00:16;99804.25;;;13.13;100.00
17525;BME280;40431;52.198;9.902;2023-08-31T01:02:51;99814.66;;;13.08;100.00
17525;BME280;40431;52.198;9.902;2023-08-31T01:05:29;99812.06;;;13.07;100.00
17525;BME280;40431;52.198;9.902;2023-08-31T01:08:05;99811.84;;;12.98;100.00
17525;BME280;40431;52.198;9.902;2023-08-31T01:10:39;99809.75;;;13.02;100.00
17525;BME280;40431;52.198;9.902;2023-08-31T01:13:12;99811.94;;;13.08;100.00
17525;BME280;40431;52.198;9.902;2023-08-31T01:15:42;99803.06;;;13.06;100.00
17525;BME280;40431;52.198;9.902;2023-08-31T01:18:11;99809.97;;;13.10;100.00
17525;BME280;40431;52.198;9.902;2023-08-31T01:20:46;99815.81;;;13.06;100.00
17525;BME280;40431;52.198;9.902;2023-08-31T01:23:19;99819.38;;;13.06;100.00
17525;BME280;40431;52.198;9.902;2023-08-31T01:25:47;99821.97;;;13.08;100.00
17525;BME280;40431;52.198;9.902;2023-08-31T01:28:14;99822.25;;;13.05;100.00
17525;BME280;40431;52.198;9.902;2023-08-31T01:30:40;99818.78;;;13.02;100.00
17525;BME280;40431;52.198;9.902;2023-08-31T01:33:07;99832.50;;;13.01;100.00
17525;BME280;40431;52.198;9.902;2023-08-31T01:35:38;99821.63;;;13.01;100.00
17525;BME280;40431;52.198;9.902;2023-08-31T01:38:07;99819.88;;;13.00;100.00
17525;BME280;40431;52.198;9.902;2023-08-31T01:40:38;99823.59;;;12.99;100.00
17525;BME280;40431;52.198;9.902;2023-08-31T01:43:07;99830.19;;;12.96;100.00
17525;BME280;40431;52.198;9.902;2023-08-31T01:45:35;99821.28;;;12.94;100.00
17525;BME280;40431;52.198;9.902;2023-08-31T01:48:03;99828.94;;;12.89;100.00
17525;BME280;40431;52.198;9.902;2023-08-31T01:50:30;99826.09;;;12.91;100.00
17525;BME280;40431;52.198;9.902;2023-08-31T01:52:56;99828.09;;;12.89;100.00
17525;BME280;40431;52.198;9.902;2023-08-31T01:55:23;99831.78;;;12.88;100.00
17525;BME280;40431;52.198;9.902;2023-08-31T01:57:50;99838.00;;;12.90;100.00
17525;BME280;40431;52.198;9.902;2023-08-31T02:00:18;99838.09;;;12.88;100.00
17525;BME280;40431;52.198;9.902;2023-08-31T02:02:45;99846.38;;;12.86;100.00
17525;BME280;40431;52.198;9.902;2023-08-31T02:05:12;99850.22;;;12.84;100.00
17525;BME280;40431;52.198;9.902;2023-08-31T02:07:38;99843.66;;;12.86;100.00
17525;BME280;40431;52.198;9.902;2023-08-31T02:10:06;99846.78;;;12.82;100.00
17525;BME280;40431;52.198;9.902;2023-08-31T02:12:33;99851.34;;;12.81;100.00
17525;BME280;40431;52.198;9.902;2023-08-31T02:15:01;99858.25;;;12.85;100.00
17525;BME280;40431;52.198;9.902;2023-08-31T02:17:29;99859.50;;;12.81;100.00
17525;BME280;40431;52.198;9.902;2023-08-31T02:19:55;99859.25;;;12.84;100.00
17525;BME280;40431;52.198;9.902;2023-08-31T02:22:23;99862.72;;;12.86;100.00
17525;BME280;40431;52.198;9.902;2023-08-31T02:24:50;99864.69;;;12.84;100.00
17525;BME280;40431;52.198;9.902;2023-08-31T02:27:17;99858.16;;;12.76;100.00
17525;BME280;40431;52.198;9.902;2023-08-31T02:29:43;99865.94;;;12.80;100.00
17525;BME280;40431;52.198;9.902;2023-08-31T02:32:10;99866.66;;;12.82;100.00
17525;BME280;40431;52.198;9.902;2023-08-31T02:34:38;99865.44;;;12.86;100.00
17525;BME280;40431;52.198;9.902;2023-08-31T02:37:04;99861.47;;;12.91;100.00
17525;BME280;40431;52.198;9.902;2023-08-31T02:39:30;99867.91;;;12.90;100.00
17525;BME280;40431;52.198;9.902;2023-08-31T02:41:57;99869.25;;;12.84;100.00
17525;BME280;40431;52.198;9.902;2023-08-31T02:44:23;99872.59;;;12.76;100.00
17525;BME280;40431;52.198;9.902;2023-08-31T02:46:50;99870.00;;;12.75;100.00
17525;BME280;40431;52.198;9.902;2023-08-31T02:49:16;99865.69;;;12.72;100.00
17525;BME280;40431;52.198;9.902;2023-08-31T02:51:44;99860.00;;;12.75;100.00
17525;BME280;40431;52.198;9.902;2023-08-31T02:54:10;99861.38;;;12.81;100.00
17525;BME280;40431;52.198;9.902;2023-08-31T02:56:36;99866.66;;;12.82;100.00
17525;BME280;40431;52.198;9.902;2023-08-31T02:59:03;99870.16;;;12.84;100.00
17525;BME280;40431;52.198;9.902;2023-08-31T03:01:29;99867.53;;;12.83;100.00
17525;BME280;40431;52.198;9.902;2023-08-31T03:03:56;99878.31;;;12.84;100.00
17525;BME280;40431;52.198;9.902;2023-08-31T03:06:22;99859.25;;;12.84;100.00
17525;BME280;40431;52.198;9.902;2023-08-31T03:08:50;99862.47;;;12.78;100.00
17525;BME280;40431;52.198;9.902;2023-08-31T03:11:16;99862.47;;;12.78;100.00
17525;BME280;40431;52.198;9.902;2023-08-31T03:13:42;99865.44;;;12.75;100.00
17525;BME280;40431;52.198;9.902;2023-08-31T03:16:09;99859.75;;;12.78;100.00
17525;BME280;40431;52.198;9.902;2023-08-31T03:18:35;99861.84;;;12.75;100.00
17525;BME280;40431;52.198;9.902;2023-08-31T03:21:02;99861.50;;;12.79;100.00
17525;BME280;40431;52.198;9.902;2023-08-31T03:23:29;99854.56;;;12.75;100.00
17525;BME280;40431;52.198;9.902;2023-08-31T03:25:56;99860.25;;;12.72;100.00
17525;BME280;40431;52.198;9.902;2023-08-31T03:28:23;99861.50;;;12.79;100.00
17525;BME280;40431;52.198;9.902;2023-08-31T03:30:54;99857.78;;;12.80;100.00
17525;BME280;40431;52.198;9.902;2023-08-31T03:33:21;99859.75;;;12.78;100.00
17525;BME280;40431;52.198;9.902;2023-08-31T03:35:47;99857.03;;;12.78;100.00
17525;BME280;40431;52.198;9.902;2023-08-31T03:38:13;99860.50;;;12.80;100.00
17525;BME280;40431;52.198;9.902;2023-08-31T03:40:40;99862.09;;;12.83;100.00
17525;BME280;40431;52.198;9.902;2023-08-31T03:43:08;99862.84;;;12.85;100.00
17525;BME280;40431;52.198;9.902;2023-08-31T03:45:34;99864.44;;;12.88;100.00
17525;BME280;40431;52.198;9.902;2023-08-31T03:48:01;99868.91;;;12.89;100.00
17525;BME280;40431;52.198;9.902;2023-08-31T03:50:27;99865.06;;;12.91;100.00
17525;BME280;40431;52.198;9.902;2023-08-31T03:52:54;99872.22;;;12.92;100.00
17525;BME280;40431;52.198;9.902;2023-08-31T03:55:20;99883.50;;;12.88;100.00
17525;BME280;40431;52.198;9.902;2023-08-31T03:57:48;99877.66;;;12.92;100.00
17525;BME280;40431;52.198;9.902;2023-08-31T04:00:16;99879.28;;;12.83;100.00
17525;BME280;40431;52.198;9.902;2023-08-31T04:02:42;99878.31;;;12.73;100.00
17525;BME280;40431;52.198;9.902;2023-08-31T04:05:09;99879.78;;;12.77;100.00
17525;BME280;40431;52.198;9.902;2023-08-31T04:07:36;99885.75;;;12.71;100.00
17525;BME280;40431;52.198;9.902;2023-08-31T04:10:02;99895.47;;;12.74;100.00
17525;BME280;40431;52.198;9.902;2023-08-31T04:12:29;99896.09;;;12.77;100.00
17525;BME280;40431;52.198;9.902;2023-08-31T04:14:56;99905.03;;;12.79;100.00
17525;BME280;40431;52.198;9.902;2023-08-31T04:17:24;99915.66;;;12.82;100.00
17525;BME280;40431;52.198;9.902;2023-08-31T04:19:51;99919.34;;;12.81;100.00
17525;BME280;40431;52.198;9.902;2023-08-31T04:22:17;99912.19;;;12.80;100.00
17525;BME280;40431;52.198;9.902;2023-08-31T04:24:44;99915.91;;;12.79;100.00
17525;BME280;40431;52.198;9.902;2023-08-31T04:27:10;99912.66;;;12.85;100.00
17525;BME280;40431;52.198;9.902;2023-08-31T04:29:37;99910.56;;;12.89;100.00
17525;BME280;40431;52.198;9.902;2023-08-31T04:32:04;99910.69;;;12.88;100.00
17525;BME280;40431;52.198;9.902;2023-08-31T04:34:31;99913.53;;;12.86;100.00
17525;BME280;40431;52.198;9.902;2023-08-31T04:36:58;99910.19;;;12.82;100.00
17525;BME280;40431;52.198;9.902;2023-08-31T04:39:25;99913.91;;;12.81;100.00
17525;BME280;40431;52.198;9.902;2023-08-31T04:41:52;99917.38;;;12.83;100.00
17525;BME280;40431;52.198;9.902;2023-08-31T04:44:18;99921.09;;;12.82;100.00
17525;BME280;40431;52.198;9.902;2023-08-31T04:46:44;99923.53;;;12.85;100.00
17525;BME280;40431;52.198;9.902;2023-08-31T04:49:11;99920.81;;;12.85;100.00
17525;BME280;40431;52.198;9.902;2023-08-31T04:51:39;99933.84;;;12.82;100.00
17525;BME280;40431;52.198;9.902;2023-08-31T04:54:07;99924.78;;;12.81;100.00
17525;BME280;40431;52.198;9.902;2023-08-31T04:56:33;99926.78;;;12.79;100.00
17525;BME280;40431;52.198;9.902;2023-08-31T04:59:00;99929.63;;;12.78;100.00
17525;BME280;40431;52.198;9.902;2023-08-31T05:01:27;99929.47;;;12.68;100.00
17525;BME280;40431;52.198;9.902;2023-08-31T05:03:54;99938.16;;;12.73;100.00
17525;BME280;40431;52.198;9.902;2023-08-31T05:06:21;99930.38;;;12.68;100.00
17525;BME280;40431;52.198;9.902;2023-08-31T05:08:49;99936.03;;;12.65;100.00
17525;BME280;40431;52.198;9.902;2023-08-31T05:11:15;99947.81;;;12.66;100.00
17525;BME280;40431;52.198;9.902;2023-08-31T05:13:42;99948.78;;;12.65;100.00
17525;BME280;40431;52.198;9.902;2023-08-31T05:16:09;99956.94;;;12.65;100.00
17525;BME280;40431;52.198;9.902;2023-08-31T05:18:35;99962.38;;;12.65;100.00
17525;BME280;40431;52.198;9.902;2023-08-31T05:21:02;99954.47;;;12.73;100.00
17525;BME280;40431;52.198;9.902;2023-08-31T05:23:28;99965.72;;;12.80;100.00
17525;BME280;40431;52.198;9.902;2023-08-31T05:25:56;99964.63;;;12.82;100.00
17525;BME280;40431;52.198;9.902;2023-08-31T05:28:23;99964.34;;;12.85;100.00
17525;BME280;40431;52.198;9.902;2023-08-31T05:30:50;99961.41;;;12.89;100.00
17525;BME280;40431;52.198;9.902;2023-08-31T05:33:17;99977.97;;;12.97;100.00
17525;BME280;40431;52.198;9.902;2023-08-31T05:35:43;99967.72;;;13.00;100.00
17525;BME280;40431;52.198;9.902;2023-08-31T05:38:10;99970.94;;;13.06;100.00
17525;BME280;40431;52.198;9.902;2023-08-31T05:40:36;99966.34;;;13.06;100.00
17525;BME280;40431;52.198;9.902;2023-08-31T05:43:04;99977.97;;;13.08;100.00
17525;BME280;40431;52.198;9.902;2023-08-31T05:45:32;99966.97;;;13.10;100.00
17525;BME280;40431;52.198;9.902;2023-08-31T05:47:58;99967.56;;;13.13;100.00
17525;BME280;40431;52.198;9.902;2023-08-31T05:50:25;99970.19;;;13.15;100.00
17525;BME280;40431;52.198;9.902;2023-08-31T05:52:52;99975.75;;;13.25;100.00
17525;BME280;40431;52.198;9.902;2023-08-31T05:55:18;99966.34;;;13.29;100.00
17525;BME280;40431;52.198;9.902;2023-08-31T05:57:45;99975.75;;;13.36;100.00
17525;BME280;40431;52.198;9.902;2023-08-31T06:00:13;99981.94;;;13.38;100.00
17525;BME280;40431;52.198;9.902;2023-08-31T06:02:39;99979.72;;;13.43;100.00
17525;BME280;40431;52.198;9.902;2023-08-31T06:05:07;99984.63;;;13.49;100.00
17525;BME280;40431;52.198;9.902;2023-08-31T06:07:33;99987.63;;;13.58;100.00
17525;BME280;40431;52.198;9.902;2023-08-31T06:09:59;99983.66;;;13.62;100.00
17525;BME280;40431;52.198;9.902;2023-08-31T06:12:26;99989.31;;;13.70;100.00
17525;BME280;40431;52.198;9.902;2023-08-31T06:14:53;99994.75;;;13.81;100.00
17525;BME280;40431;52.198;9.902;2023-08-31T06:17:20;99987.69;;;13.79;100.00
17525;BME280;40431;52.198;9.902;2023-08-31T06:19:47;99987.78;;;13.77;100.00
17525;BME280;40431;52.198;9.902;2023-08-31T06:22:13;99992.47;;;13.86;100.00
17525;BME280;40431;52.198;9.902;2023-08-31T06:24:40;99991.88;;;13.83;100.00
17525;BME280;40431;52.198;9.902;2023-08-31T06:27:07;99993.97;;;13.91;100.00
17525;BME280;40431;52.198;9.902;2023-08-31T06:29:34;99985.91;;;13.89;100.00
17525;BME280;40431;52.198;9.902;2023-08-31T06:32:00;99979.31;;;13.92;100.00
17525;BME280;40431;52.198;9.902;2023-08-31T06:34:28;99989.25;;;13.93;100.00
17525;BME280;40431;52.198;9.902;2023-08-31T06:36:56;99989.72;;;13.98;100.00
17525;BME280;40431;52.198;9.902;2023-08-31T06:39:23;99985.94;;;14.10;100.00
17525;BME280;40431;52.198;9.902;2023-08-31T06:41:49;99988.44;;;14.13;100.00
17525;BME280;40431;52.198;9.902;2023-08-31T06:44:16;99987.91;;;14.19;100.00
17525;BME280;40431;52.198;9.902;2023-08-31T06:46:43;99988.16;;;14.16;100.00
17525;BME280;40431;52.198;9.902;2023-08-31T06:49:09;99982.63;;;14.28;100.00
17525;BME280;40431;52.198;9.902;2023-08-31T06:51:37;99989.78;;;14.40;100.00
17525;BME280;40431;52.198;9.902;2023-08-31T06:54:03;99993.31;;;14.52;100.00
17525;BME280;40431;52.198;9.902;2023-08-31T06:56:31;99983.25;;;14.52;100.00
17525;BME280;40431;52.198;9.902;2023-08-31T06:58:58;99997.03;;;14.51;100.00
17525;BME280;40431;52.198;9.902;2023-08-31T07:01:24;99981.59;;;14.40;100.00
17525;BME280;40431;52.198;9.902;2023-08-31T07:03:52;99978.41;;;14.35;100.00
17525;BME280;40431;52.198;9.902;2023-08-31T07:06:18;99985.31;;;14.39;100.00
17525;BME280;40431;52.198;9.902;2023-08-31T07:08:46;99988.09;;;14.28;100.00
17525;BME280;40431;52.198;9.902;2023-08-31T07:11:13;99976.19;;;14.29;100.00
17525;BME280;40431;52.198;9.902;2023-08-31T07:13:39;99985.13;;;14.31;100.00
17525;BME280;40431;52.198;9.902;2023-08-31T07:16:05;99986.88;;;14.32;100.00
17525;BME280;40431;52.198;9.902;2023-08-31T07:18:32;99991.56;;;14.30;100.00
17525;BME280;40431;52.198;9.902;2023-08-31T07:20:58;99980.66;;;14.30;100.00
17525;BME280;40431;52.198;9.902;2023-08-31T07:23:25;99980.84;;;14.38;100.00
17525;BME280;40431;52.198;9.902;2023-08-31T07:25:56;99989.97;;;14.48;100.00
17525;BME280;40431;52.198;9.902;2023-08-31T07:28:23;99991.31;;;14.54;100.00
17525;BME280;40431;52.198;9.902;2023-08-31T07:30:49;99992.28;;;14.53;100.00
17525;BME280;40431;52.198;9.902;2023-08-31T07:33:15;99993.56;;;14.49;100.00
17525;BME280;40431;52.198;9.902;2023-08-31T07:35:42;100001.38;;;14.53;100.00
17525;BME280;40431;52.198;9.902;2023-08-31T07:38:08;99992.19;;;14.55;100.00
17525;BME280;40431;52.198;9.902;2023-08-31T07:40:34;99990.44;;;14.53;100.00
17525;BME280;40431;52.198;9.902;2023-08-31T07:43:02;99999.34;;;14.56;100.00
17525;BME280;40431;52.198;9.902;2023-08-31T07:45:29;100007.69;;;14.54;100.00
17525;BME280;40431;52.198;9.902;2023-08-31T07:47:56;100007.28;;;14.59;100.00
17525;BME280;40431;52.198;9.902;2023-08-31T07:50:22;100006.81;;;14.53;100.00
17525;BME280;40431;52.198;9.902;2023-08-31T07:52:48;100007.34;;;14.47;100.00
17525;BME280;40431;52.198;9.902;2023-08-31T07:55:15;99999.91;;;14.49;100.00
17525;BME280;40431;52.198;9.902;2023-08-31T07:57:41;100001.38;;;14.53;100.00
17525;BME280;40431;52.198;9.902;2023-08-31T08:00:10;100011.97;;;14.68;100.00
17525;BME280;40431;52.198;9.902;2023-08-31T08:02:37;100010.91;;;14.80;100.00
17525;BME280;40431;52.198;9.902;2023-08-31T08:05:04;100017.28;;;14.91;100.00
17525;BME280;40431;52.198;9.902;2023-08-31T08:07:30;100018.59;;;14.96;100.00
17525;BME280;40431;52.198;9.902;2023-08-31T08:09:57;100020.66;;;15.04;100.00
17525;BME280;40431;52.198;9.902;2023-08-31T08:12:24;100015.06;;;15.06;100.00
17525;BME280;40431;52.198;9.902;2023-08-31T08:14:51;100025.88;;;15.17;100.00
17525;BME280;40431;52.198;9.902;2023-08-31T08:17:18;100028.81;;;15.25;100.00
17525;BME280;40431;52.198;9.902;2023-08-31T08:19:45;100022.22;;;15.28;100.00
17525;BME280;40431;52.198;9.902;2023-08-31T08:22:11;100023.66;;;15.32;99.56
17525;BME280;40431;52.198;9.902;2023-08-31T08:24:38;100026.28;;;15.43;100.00
17525;BME280;40431;52.198;9.902;2023-08-31T08:27:04;100024.22;;;15.35;97.74
17525;BME280;40431;52.198;9.902;2023-08-31T08:29:31;100031.28;;;15.38;99.75
17525;BME280;40431;52.198;9.902;2023-08-31T08:31:57;100024.53;;;15.32;98.83
17525;BME280;40431;52.198;9.902;2023-08-31T08:34:25;100022.22;;;15.28;99.07
17525;BME280;40431;52.198;9.902;2023-08-31T08:36:52;100028.84;;;15.35;100.00
17525;BME280;40431;52.198;9.902;2023-08-31T08:39:18;100032.19;;;15.39;100.00
17525;BME280;40431;52.198;9.902;2023-08-31T08:41:45;100030.34;;;15.49;100.00
17525;BME280;40431;52.198;9.902;2023-08-31T08:44:13;100022.56;;;15.44;100.00
17525;BME280;40431;52.198;9.902;2023-08-31T08:46:43;100028.03;;;15.44;100.00
17525;BME280;40431;52.198;9.902;2023-08-31T08:49:10;100022.69;;;15.43;99.62
17525;BME280;40431;52.198;9.902;2023-08-31T08:51:38;100022.41;;;15.46;100.00
17525;BME280;40431;52.198;9.902;2023-08-31T08:54:05;100021.41;;;15.47;99.39
17525;BME280;40431;52.198;9.902;2023-08-31T08:56:31;100031.50;;;15.56;98.28
17525;BME280;40431;52.198;9.902;2023-08-31T08:58:58;100025.81;;;15.69;98.55
17525;BME280;40431;52.198;9.902;2023-08-31T09:01:25;100031.56;;;15.76;96.66
17525;BME280;40431;52.198;9.902;2023-08-31T09:03:52;100027.59;;;15.90;97.71
17525;BME280;40431;52.198;9.902;2023-08-31T09:06:19;100018.69;;;16.07;98.06
17525;BME280;40431;52.198;9.902;2023-08-31T09:08:53;100026.63;;;16.20;95.74
17525;BME280;40431;52.198;9.902;2023-08-31T09:11:20;100022.75;;;16.23;93.94
17525;BME280;40431;52.198;9.902;2023-08-31T09:13:48;100033.53;;;16.34;95.13
17525;BME280;40431;52.198;9.902;2023-08-31T09:16:23;100019.84;;;16.34;94.23
17525;BME280;40431;52.198;9.902;2023-08-31T09:18:50;100029.38;;;16.40;94.48
17525;BME280;40431;52.198;9.902;2023-08-31T09:21:17;100025.34;;;16.44;91.76
17525;BME280;40431;52.198;9.902;2023-08-31T09:23:48;100013.81;;;16.40;92.58
17525;BME280;40431;52.198;9.902;2023-08-31T09:26:21;100021.72;;;16.43;91.76
17525;BME280;40431;52.198;9.902;2023-08-31T09:28:48;100020.16;;;16.50;90.90
17525;BME280;40431;52.198;9.902;2023-08-31T09:31:15;100017.09;;;16.53;92.48
17525;BME280;40431;52.198;9.902;2023-08-31T09:33:49;100019.84;;;16.53;91.31
17525;BME280;40431;52.198;9.902;2023-08-31T09:36:16;100029.06;;;16.52;89.80
17525;BME280;40431;52.198;9.902;2023-08-31T09:38:43;100014.09;;;16.47;90.87
17525;BME280;40431;52.198;9.902;2023-08-31T09:41:11;100012.34;;;16.46;91.11
17525;BME280;40431;52.198;9.902;2023-08-31T09:43:38;100010.06;;;16.41;90.28
17525;BME280;40431;52.198;9.902;2023-08-31T09:46:04;100008.91;;;16.34;91.38
17525;BME280;40431;52.198;9.902;2023-08-31T09:48:32;100005.03;;;16.27;92.47
17525;BME280;40431;52.198;9.902;2023-08-31T09:51:02;99995.50;;;16.11;92.28
17525;BME280;40431;52.198;9.902;2023-08-31T09:53:31;100005.31;;;16.04;93.99
17525;BME280;40431;52.198;9.902;2023-08-31T09:55:57;100005.47;;;16.12;96.12
17525;BME280;40431;52.198;9.902;2023-08-31T09:58:25;100013.81;;;16.20;93.60
17525;BME280;40431;52.198;9.902;2023-08-31T10:00:53;100011.50;;;16.26;95.51
17525;BME280;40431;52.198;9.902;2023-08-31T10:03:20;100006.78;;;16.28;93.47
17525;BME280;40431;52.198;9.902;2023-08-31T10:05:48;100011.25;;;16.29;91.87
17525;BME280;40431;52.198;9.902;2023-08-31T10:08:15;100013.66;;;16.42;94.02
17525;BME280;40431;52.198;9.902;2023-08-31T10:10:42;100016.25;;;16.53;91.08
17525;BME280;40431;52.198;9.902;2023-08-31T10:13:09;100017.53;;;16.59;91.37
17525;BME280;40431;52.198;9.902;2023-08-31T10:15:37;100012.94;;;16.69;91.68
17525;BME280;40431;52.198;9.902;2023-08-31T10:18:05;100023.88;;;16.69;89.57
17525;BME280;40431;52.198;9.902;2023-08-31T10:20:33;100019.25;;;16.69;89.32
17525;BME280;40431;52.198;9.902;2023-08-31T10:23:00;100021.41;;;16.76;91.22
17525;BME280;40431;52.198;9.902;2023-08-31T10:26:00;100025.28;;;16.83;91.69
17525;BME280;40431;52.198;9.902;2023-08-31T10:28:29;100028.31;;;16.90;91.70
17525;BME280;40431;52.198;9.902;2023-08-31T10:31:04;100030.47;;;16.96;91.71
17525;BME280;40431;52.198;9.902;2023-08-31T10:33:31;100027.56;;;17.07;92.52
17525;BME280;40431;52.198;9.902;2023-08-31T10:35:58;100020.06;;;17.09;91.86
17525;BME280;40431;52.198;9.902;2023-08-31T10:38:26;100016.09;;;17.22;91.40
17525;BME280;40431;52.198;9.902;2023-08-31T10:41:21;100014.84;;;17.16;87.63
17525;BME280;40431;52.198;9.902;2023-08-31T10:43:49;100015.53;;;17.28;89.50
17525;BME280;40431;52.198;9.902;2023-08-31T10:46:27;99999.28;;;17.16;87.49
17525;BME280;40431;52.198;9.902;2023-08-31T10:48:54;100014.47;;;17.01;86.68
17525;BME280;40431;52.198;9.902;2023-08-31T10:51:25;100003.41;;;16.93;85.42
17525;BME280;40431;52.198;9.902;2023-08-31T10:53:52;100008.88;;;16.93;87.65
17525;BME280;40431;52.198;9.902;2023-08-31T10:56:19;100009.16;;;16.90;87.87
17525;BME280;40431;52.198;9.902;2023-08-31T10:58:58;100008.41;;;16.97;86.34
17525;BME280;40431;52.198;9.902;2023-08-31T11:01:54;100002.88;;;17.17;85.92
17525;BME280;40431;52.198;9.902;2023-08-31T11:04:22;100014.81;;;17.26;86.22
17525;BME280;40431;52.198;9.902;2023-08-31T11:06:49;100011.47;;;17.32;83.63
17525;BME280;40431;52.198;9.902;2023-08-31T11:09:20;100011.78;;;17.19;80.95
17525;BME280;40431;52.198;9.902;2023-08-31T11:11:47;100013.88;;;17.07;83.88
17525;BME280;40431;52.198;9.902;2023-08-31T11:14:14;100015.47;;;17.00;84.04
17525;BME280;40431;52.198;9.902;2023-08-31T11:16:41;100011.31;;;16.96;81.73
17525;BME280;40431;52.198;9.902;2023-08-31T11:19:10;100005.25;;;17.02;82.50
17525;BME280;40431;52.198;9.902;2023-08-31T11:21:37;100008.53;;;17.06;82.61
17525;BME280;40431;52.198;9.902;2023-08-31T11:24:04;100016.16;;;17.12;83.55
17525;BME280;40431;52.198;9.902;2023-08-31T11:26:32;100008.72;;;17.32;82.82
17525;BME280;40431;52.198;9.902;2023-08-31T11:28:58;100012.09;;;17.26;83.11
17525;BME280;40431;52.198;9.902;2023-08-31T11:31:25;100005.28;;;17.30;83.10
17525;BME280;40431;52.198;9.902;2023-08-31T11:33:52;100009.88;;;17.39;85.32
17525;BME280;40431;52.198;9.902;2023-08-31T11:36:20;100017.03;;;17.50;82.64
17525;BME280;40431;52.198;9.902;2023-08-31T11:38:47;100010.22;;;17.54;80.33
17525;BME280;40431;52.198;9.902;2023-08-31T11:41:14;100008.94;;;17.48;80.13
17525;BME280;40431;52.198;9.902;2023-08-31T11:43:41;100000.34;;;17.61;81.26
17525;BME280;40431;52.198;9.902;2023-08-31T11:46:08;100001.63;;;17.67;80.69
17525;BME280;40431;52.198;9.902;2023-08-31T11:48:35;100010.47;;;17.79;81.14
17525;BME280;40431;52.198;9.902;2023-08-31T11:51:02;100016.38;;;17.84;79.16
17525;BME280;40431;52.198;9.902;2023-08-31T11:53:30;100007.47;;;17.82;78.47
17525;BME280;40431;52.198;9.902;2023-08-31T11:55:56;100003.78;;;17.91;77.62
17525;BME280;40431;52.198;9.902;2023-08-31T11:58:22;100006.97;;;17.96;79.95
17525;BME280;40431;52.198;9.902;2023-08-31T12:00:57;100014.91;;;18.17;79.15
17525;BME280;40431;52.198;9.902;2023-08-31T12:03:24;100010.34;;;18.44;75.25
17525;BME280;40431;52.198;9.902;2023-08-31T12:05:52;100015.19;;;18.50;73.90
17525;BME280;40431;52.198;9.902;2023-08-31T12:08:24;100013.16;;;18.52;72.22
17525;BME280;40431;52.198;9.902;2023-08-31T12:10:53;100007.97;;;18.49;72.31
17525;BME280;40431;52.198;9.902;2023-08-31T12:13:19;100014.56;;;18.39;73.78
17525;BME280;40431;52.198;9.902;2023-08-31T12:15:47;99997.97;;;18.40;74.13
17525;BME280;40431;52.198;9.902;2023-08-31T12:18:14;100005.25;;;18.49;73.07
17525;BME280;40431;52.198;9.902;2023-08-31T12:20:44;100001.78;;;18.47;73.04
17525;BME280;40431;52.198;9.902;2023-08-31T12:23:11;100003.19;;;18.51;71.97
17525;BME280;40431;52.198;9.902;2023-08-31T12:25:45;99995.56;;;18.45;73.48
17525;BME280;40431;52.198;9.902;2023-08-31T12:28:13;100007.03;;;18.59;72.70
17525;BME280;40431;52.198;9.902;2023-08-31T12:30:42;100007.31;;;18.56;73.85
17525;BME280;40431;52.198;9.902;2023-08-31T12:33:09;100010.78;;;18.58;74.21
17525;BME280;40431;52.198;9.902;2023-08-31T12:35:35;100024.13;;;18.52;72.38
17525;BME280;40431;52.198;9.902;2023-08-31T12:38:02;100044.19;;;18.71;75.88
17525;BME280;40431;52.198;9.902;2023-08-31T12:40:29;100034.22;;;18.70;73.93
17525;BME280;40431;52.198;9.902;2023-08-31T12:42:55;100028.34;;;18.65;73.19
17525;BME280;40431;52.198;9.902;2023-08-31T12:45:23;100020.59;;;18.60;71.72
17525;BME280;40431;52.198;9.902;2023-08-31T12:47:49;100025.53;;;18.57;72.42
17525;BME280;40431;52.198;9.902;2023-08-31T12:50:16;100032.28;;;18.44;73.38
17525;BME280;40431;52.198;9.902;2023-08-31T12:52:43;100043.56;;;18.41;75.28